createdAt,value
2017-11-07T00:01:54.662Z,97.40
2017-11-07T00:04:22.790Z,97.14
2017-11-07T00:09:23.967Z,97.61
2017-11-07T00:11:51.533Z,95.54
2017-11-07T00:14:19.139Z,96.24
2017-11-07T00:16:46.708Z,96.30
2017-11-07T00:19:14.276Z,96.47
2017-11-07T00:21:41.850Z,96.83
2017-11-07T00:24:10.139Z,96.15
2017-11-07T00:26:37.709Z,95.49
2017-11-07T00:29:05.313Z,95.26
2017-11-07T00:31:32.991Z,95.83
2017-11-07T00:34:00.593Z,96.64
2017-11-07T00:36:28.194Z,96.45
2017-11-07T00:38:55.807Z,96.51
2017-11-07T00:41:23.379Z,95.45
2017-11-07T00:43:50.950Z,95.35
2017-11-07T00:46:19.374Z,95.15
2017-11-07T00:48:46.936Z,95.69
2017-11-07T00:51:14.518Z,97.12
2017-11-07T00:53:42.088Z,97.80
2017-11-07T00:56:09.685Z,97.58
2017-11-07T00:58:37.270Z,97.67
2017-11-07T01:01:04.844Z,97.12
2017-11-07T01:03:32.500Z,96.14
2017-11-07T01:06:00.984Z,97.33
2017-11-07T01:08:28.600Z,96.58
2017-11-07T01:10:57.105Z,96.68
2017-11-07T01:13:24.669Z,97.74
2017-11-07T01:15:53.083Z,97.66
2017-11-07T01:18:20.648Z,97.32
2017-11-07T01:20:49.152Z,97.01
2017-11-07T01:23:16.720Z,98.12
2017-11-07T01:25:44.284Z,98.02
2017-11-07T01:28:12.913Z,97.52
2017-11-07T01:30:40.483Z,97.08
2017-11-07T01:33:08.921Z,96.52
2017-11-07T01:35:36.519Z,96.80
2017-11-07T01:38:04.079Z,97.17
2017-11-07T01:40:32.261Z,96.77
2017-11-07T01:42:59.832Z,96.89
2017-11-07T01:45:27.979Z,96.99
2017-11-07T01:47:55.550Z,97.87
2017-11-07T01:50:23.900Z,97.50
2017-11-07T01:52:51.476Z,98.08
2017-11-07T01:55:19.048Z,98.53
2017-11-07T01:57:46.608Z,98.00
2017-11-07T02:00:14.172Z,96.24
2017-11-07T02:02:41.738Z,96.13
2017-11-07T02:05:10.202Z,96.62
2017-11-07T02:07:37.765Z,96.99
2017-11-07T02:10:06.531Z,96.70
2017-11-07T02:12:34.097Z,96.97
2017-11-07T02:15:01.674Z,97.53
2017-11-07T02:17:29.948Z,97.33
2017-11-07T02:19:57.518Z,97.40
2017-11-07T02:22:25.086Z,97.37
2017-11-07T02:24:53.592Z,97.52
2017-11-07T02:27:21.213Z,97.47
2017-11-07T02:29:48.790Z,97.73
2017-11-07T02:32:16.352Z,97.64
2017-11-07T02:34:43.918Z,97.69
2017-11-07T02:37:11.565Z,97.98
2017-11-07T02:39:39.144Z,98.56
2017-11-07T02:42:07.529Z,98.33
2017-11-07T02:44:35.364Z,98.00
2017-11-07T02:47:02.931Z,97.87
2017-11-07T02:49:30.499Z,96.65
2017-11-07T02:51:58.060Z,96.78
2017-11-07T02:54:25.626Z,96.99
2017-11-07T02:56:53.196Z,97.58
2017-11-07T02:59:20.843Z,97.87
2017-11-07T03:01:49.312Z,97.99
2017-11-07T03:04:16.884Z,96.42
2017-11-07T03:06:44.460Z,97.73
2017-11-07T03:09:12.103Z,97.97
2017-11-07T03:11:39.684Z,98.40
2017-11-07T03:14:07.259Z,98.10
2017-11-07T03:16:34.873Z,98.30
2017-11-07T03:19:02.442Z,98.02
2017-11-07T03:21:30.014Z,98.34
2017-11-07T03:23:57.597Z,98.35
2017-11-07T03:26:25.170Z,98.30
2017-11-07T03:28:52.749Z,98.35
2017-11-07T03:31:20.321Z,98.29
2017-11-07T03:33:47.938Z,97.63
2017-11-07T03:36:16.367Z,97.73
2017-11-07T03:38:43.948Z,97.89
2017-11-07T03:41:11.525Z,97.84
2017-11-07T03:43:39.105Z,97.07
2017-11-07T03:46:06.674Z,97.68
2017-11-07T03:48:34.265Z,97.43
2017-11-07T03:51:01.834Z,97.92
2017-11-07T03:53:29.416Z,97.60
2017-11-07T03:55:57.006Z,97.97
2017-11-07T03:58:24.579Z,97.81
2017-11-07T04:00:52.189Z,97.69
2017-11-07T04:03:19.758Z,97.67
2017-11-07T04:05:47.333Z,97.64
2017-11-07T04:08:14.906Z,97.79
2017-11-07T04:10:42.487Z,97.93
2017-11-07T04:13:10.064Z,97.66
2017-11-07T04:15:37.639Z,97.62
2017-11-07T04:18:05.230Z,98.05
2017-11-07T04:20:32.822Z,97.76
2017-11-07T04:25:34.338Z,97.70
2017-11-07T04:28:01.950Z,97.86
2017-11-07T04:30:29.542Z,97.78
2017-11-07T04:32:57.933Z,97.63
2017-11-07T04:35:25.524Z,97.51
2017-11-07T04:37:53.098Z,97.66
2017-11-07T04:40:20.681Z,97.74
2017-11-07T04:42:48.306Z,97.84
2017-11-07T04:45:15.917Z,98.04
2017-11-07T04:47:43.545Z,97.96
2017-11-07T04:50:11.126Z,98.05
2017-11-07T04:52:38.709Z,97.44
2017-11-07T04:55:06.293Z,96.72
2017-11-07T04:57:33.876Z,96.04
2017-11-07T05:00:01.450Z,95.40
2017-11-07T05:02:29.035Z,96.03
2017-11-07T05:04:56.669Z,97.09
2017-11-07T05:07:24.238Z,97.70
2017-11-07T05:09:51.860Z,96.45
2017-11-07T05:12:19.444Z,97.05
2017-11-07T05:14:47.067Z,97.43
2017-11-07T05:17:14.646Z,97.22
2017-11-07T05:19:42.225Z,96.89
2017-11-07T05:22:09.885Z,96.82
2017-11-07T05:24:37.501Z,96.32
2017-11-07T05:27:05.149Z,96.81
2017-11-07T05:29:32.730Z,95.97
2017-11-07T05:32:00.341Z,96.23
2017-11-07T05:34:27.950Z,96.97
2017-11-07T05:36:55.566Z,96.74
2017-11-07T05:39:23.150Z,97.23
2017-11-07T05:41:50.761Z,96.74
2017-11-07T05:44:18.367Z,96.76
2017-11-07T05:46:45.969Z,96.49
2017-11-07T05:49:13.564Z,97.08
2017-11-07T05:51:41.133Z,97.10
2017-11-07T05:54:08.723Z,97.28
2017-11-07T05:56:36.310Z,97.78
2017-11-07T05:59:03.929Z,97.38
2017-11-07T06:01:31.530Z,96.51
2017-11-07T06:03:59.146Z,96.67
2017-11-07T06:06:26.721Z,96.58
2017-11-07T06:08:54.285Z,95.82
2017-11-07T06:11:21.858Z,96.92
2017-11-07T06:13:49.428Z,97.04
2017-11-07T06:16:17.005Z,96.78
2017-11-07T06:18:44.592Z,97.03
2017-11-07T06:21:12.173Z,97.02
2017-11-07T06:23:39.741Z,96.97
2017-11-07T06:26:07.313Z,96.42
2017-11-07T06:28:35.331Z,97.50
2017-11-07T06:31:02.945Z,97.75
2017-11-07T06:33:30.573Z,98.45
2017-11-07T06:35:58.161Z,98.36
2017-11-07T06:38:25.793Z,98.92
2017-11-07T06:40:53.413Z,98.32
2017-11-07T06:43:21.022Z,98.23
2017-11-07T06:45:48.600Z,97.84
2017-11-07T06:48:16.174Z,98.15
2017-11-07T06:50:43.759Z,97.48
2017-11-07T06:53:11.337Z,97.32
2017-11-07T06:55:38.921Z,96.48
2017-11-07T06:58:06.535Z,96.38
2017-11-07T07:00:34.114Z,97.12
2017-11-07T07:03:01.722Z,97.03
2017-11-07T07:05:29.311Z,96.41
2017-11-07T07:07:56.934Z,96.87
2017-11-07T07:10:24.513Z,96.59
2017-11-07T07:12:52.252Z,96.55
2017-11-07T07:15:19.829Z,96.82
2017-11-07T07:17:47.394Z,97.50
2017-11-07T07:20:16.212Z,97.69
2017-11-07T07:22:43.836Z,96.45
2017-11-07T07:25:11.399Z,96.58
2017-11-07T07:27:38.966Z,95.80
2017-11-07T07:30:06.559Z,95.52
2017-11-07T07:32:34.164Z,95.65
2017-11-07T07:35:01.738Z,95.49
2017-11-07T07:37:29.303Z,95.65
2017-11-07T07:39:56.869Z,96.04
2017-11-07T07:42:24.465Z,96.08
2017-11-07T07:44:52.898Z,95.68
2017-11-07T07:47:21.180Z,95.65
2017-11-07T07:49:48.746Z,95.68
2017-11-07T07:52:16.346Z,96.15
2017-11-07T07:54:43.932Z,96.00
2017-11-07T07:57:11.498Z,96.22
2017-11-07T07:59:39.069Z,96.93
2017-11-07T08:02:06.631Z,96.77
2017-11-07T08:04:34.245Z,97.08
2017-11-07T08:07:01.810Z,96.46
2017-11-07T08:09:29.382Z,96.76
2017-11-07T08:11:56.953Z,96.83
2017-11-07T08:14:24.526Z,96.42
2017-11-07T08:16:52.140Z,96.44
2017-11-07T08:19:19.708Z,96.76
2017-11-07T08:21:47.278Z,96.69
2017-11-07T08:24:17.159Z,96.44
2017-11-07T08:26:44.765Z,96.05
2017-11-07T08:29:12.340Z,96.22
2017-11-07T08:31:39.938Z,96.48
2017-11-07T08:34:07.505Z,95.92
2017-11-07T08:36:35.124Z,95.06
2017-11-07T08:39:02.742Z,95.37
2017-11-07T08:41:30.421Z,95.56
2017-11-07T08:43:57.985Z,95.83
2017-11-07T08:46:25.714Z,96.26
2017-11-07T08:48:53.283Z,95.85
2017-11-07T08:51:21.502Z,96.10
2017-11-07T08:53:49.065Z,95.76
2017-11-07T08:56:16.631Z,95.15
2017-11-07T08:58:44.198Z,95.60
2017-11-07T09:01:11.766Z,95.17
2017-11-07T09:03:39.368Z,95.18
2017-11-07T09:06:06.933Z,95.27
2017-11-07T09:11:27.665Z,94.84
2017-11-07T09:13:55.248Z,93.82
2017-11-07T09:16:22.818Z,94.42
2017-11-07T09:18:50.382Z,94.19
2017-11-07T09:21:17.949Z,94.18
2017-11-07T09:23:45.595Z,94.03
2017-11-07T09:26:13.155Z,94.19
2017-11-07T09:28:40.771Z,93.46
2017-11-07T09:31:08.346Z,93.85
2017-11-07T09:33:35.910Z,93.71
2017-11-07T09:36:03.471Z,93.93
2017-11-07T09:38:31.047Z,93.83
2017-11-07T09:40:58.614Z,94.65
2017-11-07T09:43:26.191Z,94.78
2017-11-07T09:45:53.754Z,95.06
2017-11-07T09:48:21.403Z,95.31
2017-11-07T09:50:48.966Z,95.33
2017-11-07T09:53:16.578Z,95.29
2017-11-07T09:55:44.170Z,95.64
2017-11-07T09:58:11.773Z,95.42
2017-11-07T10:00:39.447Z,95.45
2017-11-07T10:03:07.071Z,95.43
2017-11-07T10:05:34.649Z,95.41
2017-11-07T10:08:02.304Z,95.10
2017-11-07T10:10:29.874Z,94.66
2017-11-07T10:12:57.443Z,95.50
2017-11-07T10:15:25.010Z,94.93
2017-11-07T10:17:52.590Z,94.23
2017-11-07T10:20:20.202Z,93.71
2017-11-07T10:22:47.765Z,93.55
2017-11-07T10:25:15.329Z,93.43
2017-11-07T10:27:42.986Z,92.40
2017-11-07T10:30:10.551Z,92.50
2017-11-07T10:32:38.573Z,91.78
2017-11-07T10:35:12.414Z,92.40
2017-11-07T10:37:40.012Z,92.09
2017-11-07T10:40:07.572Z,91.42
2017-11-07T10:42:35.176Z,90.83
2017-11-07T10:45:02.758Z,89.67
2017-11-07T10:47:30.350Z,89.92
2017-11-07T10:49:57.921Z,89.23
2017-11-07T10:52:25.503Z,89.54
2017-11-07T10:54:53.111Z,89.56
2017-11-07T10:57:20.694Z,89.45
2017-11-07T10:59:48.259Z,88.42
2017-11-07T11:02:15.826Z,89.99
2017-11-07T11:04:43.385Z,88.56
2017-11-07T11:07:11.001Z,87.69
2017-11-07T11:09:38.559Z,88.81
2017-11-07T11:12:06.118Z,87.93
2017-11-07T11:14:33.682Z,88.43
2017-11-07T11:17:01.247Z,86.94
2017-11-07T11:19:28.933Z,87.74
2017-11-07T11:21:56.506Z,89.26
2017-11-07T11:24:24.066Z,89.02
2017-11-07T11:26:51.639Z,88.69
2017-11-07T11:29:19.216Z,87.16
2017-11-07T11:31:46.832Z,87.41
2017-11-07T11:34:15.070Z,86.86
2017-11-07T11:36:42.671Z,88.38
2017-11-07T11:39:10.236Z,86.07
2017-11-07T11:41:37.806Z,86.79
2017-11-07T11:44:05.584Z,85.02
2017-11-07T11:46:33.150Z,86.72
2017-11-07T11:49:00.709Z,84.18
2017-11-07T11:51:28.267Z,85.61
2017-11-07T11:53:55.826Z,86.84
2017-11-07T11:56:23.394Z,85.68
2017-11-07T11:58:50.949Z,84.46
2017-11-07T12:01:18.560Z,85.61
2017-11-07T12:03:47.082Z,86.32
2017-11-07T12:06:14.643Z,84.21
2017-11-07T12:08:42.217Z,84.66
2017-11-07T12:11:09.825Z,84.86
2017-11-07T12:13:37.383Z,84.08
2017-11-07T12:16:04.970Z,83.06
2017-11-07T12:18:32.539Z,84.53
2017-11-07T12:21:00.098Z,83.70
2017-11-07T12:23:27.664Z,84.36
2017-11-07T12:25:55.962Z,83.31
2017-11-07T12:28:23.538Z,83.57
2017-11-07T12:30:51.103Z,82.23
2017-11-07T12:33:18.677Z,83.19
2017-11-07T12:35:46.282Z,82.34
2017-11-07T12:38:13.850Z,82.41
2017-11-07T12:40:42.115Z,81.94
2017-11-07T12:43:09.866Z,82.06
2017-11-07T12:45:37.433Z,83.15
2017-11-07T12:48:04.999Z,82.94
2017-11-07T12:50:44.200Z,81.63
2017-11-07T12:53:11.782Z,81.72
2017-11-07T12:55:39.392Z,84.33
2017-11-07T12:58:06.954Z,83.18
2017-11-07T13:00:34.523Z,81.77
2017-11-07T13:03:02.089Z,83.18
2017-11-07T13:05:29.698Z,82.29
2017-11-07T13:07:57.367Z,83.98
2017-11-07T13:10:24.963Z,83.94
2017-11-07T13:12:52.570Z,84.06
2017-11-07T13:15:20.182Z,83.80
2017-11-07T13:17:47.781Z,83.95
2017-11-07T13:20:16.429Z,85.14
2017-11-07T13:22:43.987Z,84.61
2017-11-07T13:25:11.566Z,83.38
2017-11-07T13:27:39.214Z,84.65
2017-11-07T13:30:06.802Z,86.09
2017-11-07T13:32:34.402Z,83.57
2017-11-07T13:35:01.967Z,84.66
2017-11-07T13:37:30.443Z,85.37
2017-11-07T13:39:58.046Z,85.94
2017-11-07T13:42:25.671Z,85.11
2017-11-07T13:44:53.239Z,84.71
2017-11-07T13:47:20.810Z,86.43
2017-11-07T13:49:48.378Z,85.08
2017-11-07T13:52:15.969Z,86.37
2017-11-07T13:54:43.530Z,86.47
2017-11-07T13:57:11.102Z,86.91
2017-11-07T13:59:38.667Z,85.35
2017-11-07T14:02:06.251Z,87.25
2017-11-07T14:04:33.866Z,86.34
2017-11-07T14:07:01.459Z,86.52
2017-11-07T14:09:29.026Z,86.65
2017-11-07T14:11:56.633Z,85.78
2017-11-07T14:14:24.196Z,87.15
2017-11-07T14:16:51.857Z,86.94
2017-11-07T14:19:19.425Z,86.67
2017-11-07T14:21:46.983Z,87.12
2017-11-07T14:24:14.549Z,87.49
2017-11-07T14:26:42.116Z,87.17
2017-11-07T14:29:09.690Z,87.85
2017-11-07T14:31:37.257Z,88.22
2017-11-07T14:34:04.844Z,87.40
2017-11-07T14:36:32.446Z,88.32
2017-11-07T14:39:00.377Z,87.48
2017-11-07T14:41:27.945Z,88.54
2017-11-07T14:43:55.507Z,87.86
2017-11-07T14:46:23.071Z,88.15
2017-11-07T14:48:51.578Z,88.17
2017-11-07T14:51:19.148Z,88.76
2017-11-07T14:53:46.771Z,88.92
2017-11-07T14:56:14.338Z,87.95
2017-11-07T14:58:41.902Z,89.72
2017-11-07T15:01:09.499Z,88.75
2017-11-07T15:03:37.094Z,88.35
2017-11-07T15:06:04.702Z,89.01
2017-11-07T15:08:32.374Z,89.18
2017-11-07T15:10:59.957Z,89.44
2017-11-07T15:13:27.519Z,88.38
2017-11-07T15:15:55.098Z,89.24
2017-11-07T15:18:22.776Z,89.21
2017-11-07T15:20:50.361Z,89.47
2017-11-07T15:23:17.925Z,89.82
2017-11-07T15:25:45.487Z,89.84
2017-11-07T15:28:13.057Z,89.66
2017-11-07T15:30:40.658Z,89.97
2017-11-07T15:33:08.225Z,89.48
2017-11-07T15:35:35.786Z,90.58
2017-11-07T15:38:03.399Z,89.89
2017-11-07T15:40:30.968Z,90.36
2017-11-07T15:42:58.530Z,90.32
2017-11-07T15:45:26.094Z,90.61
2017-11-07T15:47:53.665Z,90.81
2017-11-07T15:50:21.236Z,90.14
2017-11-07T15:52:48.807Z,90.38
2017-11-07T15:55:16.435Z,89.51
2017-11-07T15:57:44.004Z,90.07
2017-11-07T16:00:11.570Z,90.64
2017-11-07T16:02:39.146Z,90.84
2017-11-07T16:05:06.778Z,90.18
2017-11-07T16:07:34.381Z,90.32
2017-11-07T16:10:02.003Z,90.93
2017-11-07T16:12:29.665Z,89.77
2017-11-07T16:14:57.257Z,90.40
2017-11-07T16:17:24.825Z,90.55
2017-11-07T16:19:52.390Z,90.25
2017-11-07T16:22:19.954Z,90.38
2017-11-07T16:24:47.514Z,90.62
2017-11-07T16:27:15.094Z,90.24
2017-11-07T16:29:42.654Z,90.29
2017-11-07T16:32:10.258Z,91.36
2017-11-07T16:34:37.822Z,90.43
2017-11-07T16:37:05.386Z,90.19
2017-11-07T16:39:32.950Z,90.79
2017-11-07T16:42:00.598Z,90.98
2017-11-07T16:44:28.157Z,91.00
2017-11-07T16:46:55.726Z,91.86
2017-11-07T16:49:23.289Z,91.17
2017-11-07T16:51:50.870Z,92.00
2017-11-07T16:54:18.483Z,92.43
2017-11-07T16:56:46.053Z,92.24
2017-11-07T16:59:13.623Z,92.32
2017-11-07T17:01:41.207Z,91.49
2017-11-07T17:04:08.805Z,91.61
2017-11-07T17:06:36.414Z,91.75
2017-11-07T17:09:03.981Z,92.68
2017-11-07T17:11:31.542Z,92.07
2017-11-07T17:13:59.147Z,92.03
2017-11-07T17:16:26.735Z,91.34
2017-11-07T17:18:54.326Z,91.85
2017-11-07T17:21:22.103Z,91.40
2017-11-07T17:23:49.707Z,91.70
2017-11-07T17:26:17.279Z,91.65
2017-11-07T17:28:44.847Z,91.96
2017-11-07T17:31:12.433Z,90.95
2017-11-07T17:33:39.998Z,91.68
2017-11-07T17:36:07.693Z,91.59
2017-11-07T17:38:35.690Z,91.39
2017-11-07T17:41:03.291Z,91.59
2017-11-07T17:43:30.870Z,90.94
2017-11-07T17:45:58.438Z,91.42
2017-11-07T17:48:26.006Z,90.93
2017-11-07T17:50:53.581Z,90.94
2017-11-07T17:53:21.196Z,91.51
2017-11-07T17:55:48.768Z,91.44
2017-11-07T17:58:16.330Z,90.76
2017-11-07T18:00:43.902Z,91.70
2017-11-07T18:03:11.537Z,91.12
2017-11-07T18:05:39.127Z,90.80
2017-11-07T18:08:06.714Z,91.00
2017-11-07T18:10:34.287Z,91.53
2017-11-07T18:13:01.854Z,91.35
2017-11-07T18:15:29.486Z,91.98
2017-11-07T18:17:57.055Z,91.51
2017-11-07T18:20:24.623Z,91.12
2017-11-07T18:22:52.246Z,91.46
2017-11-07T18:25:19.815Z,90.89
2017-11-07T18:27:47.392Z,91.75
2017-11-07T18:30:14.964Z,90.88
2017-11-07T18:32:42.665Z,91.73
2017-11-07T18:35:10.272Z,90.65
2017-11-07T18:37:37.873Z,91.63
2017-11-07T18:40:05.458Z,92.03
2017-11-07T18:42:33.032Z,90.51
2017-11-07T18:45:00.607Z,91.36
2017-11-07T18:47:28.331Z,91.22
2017-11-07T18:49:57.854Z,91.06
2017-11-07T18:52:25.515Z,91.12
2017-11-07T18:54:53.086Z,91.25
2017-11-07T18:57:20.650Z,90.97
2017-11-07T18:59:48.222Z,91.25
2017-11-07T19:02:15.832Z,91.36
2017-11-07T19:04:43.405Z,90.82
2017-11-07T19:07:10.974Z,91.82
2017-11-07T19:09:38.773Z,91.33
2017-11-07T19:12:06.345Z,91.42
2017-11-07T19:14:33.942Z,91.61
2017-11-07T19:17:01.550Z,92.54
2017-11-07T19:19:29.180Z,92.12
2017-11-07T19:21:56.755Z,92.29
2017-11-07T19:24:24.336Z,92.22
2017-11-07T19:26:51.941Z,92.34
2017-11-07T19:29:20.685Z,92.01
2017-11-07T19:31:48.394Z,92.43
2017-11-07T19:34:15.970Z,91.89
2017-11-07T19:36:48.073Z,92.01
2017-11-07T19:39:15.699Z,92.06
2017-11-07T19:41:43.276Z,91.99
2017-11-07T19:44:10.857Z,91.59
2017-11-07T19:46:38.441Z,91.59
2017-11-07T19:49:06.015Z,91.69
2017-11-07T19:51:33.588Z,91.96
2017-11-07T19:54:01.179Z,91.73
2017-11-07T19:56:28.753Z,91.91
2017-11-07T19:58:56.384Z,91.63
2017-11-07T20:01:23.968Z,92.60
2017-11-07T20:03:51.607Z,91.80
2017-11-07T20:06:19.232Z,91.59
2017-11-07T20:08:46.908Z,91.39
2017-11-07T20:11:14.553Z,92.04
2017-11-07T20:13:42.135Z,91.64
2017-11-07T20:16:09.768Z,92.43
2017-11-07T20:18:37.343Z,92.18
2017-11-07T20:21:05.050Z,92.33
2017-11-07T20:23:32.763Z,91.77
2017-11-07T20:26:00.466Z,91.94
2017-11-07T20:28:28.557Z,92.53
2017-11-07T20:30:56.260Z,92.62
2017-11-07T20:33:23.855Z,92.49
2017-11-07T20:35:51.525Z,91.79
2017-11-07T20:38:19.102Z,91.87
2017-11-07T20:40:46.682Z,91.59
2017-11-07T20:43:14.636Z,91.79
2017-11-07T20:45:42.397Z,91.97
2017-11-07T20:48:10.595Z,91.99
2017-11-07T20:50:38.182Z,92.14
2017-11-07T20:53:05.783Z,92.68
2017-11-07T20:55:33.363Z,92.05
2017-11-07T20:58:00.940Z,92.45
2017-11-07T21:00:28.516Z,92.55
2017-11-07T21:02:56.150Z,92.09
2017-11-07T21:05:23.716Z,92.37
2017-11-07T21:07:51.294Z,92.52
2017-11-07T21:10:19.654Z,92.79
2017-11-07T21:12:47.309Z,92.05
2017-11-07T21:15:14.881Z,92.03
2017-11-07T21:17:42.447Z,92.35
2017-11-07T21:20:10.610Z,91.96
2017-11-07T21:22:38.278Z,91.81
2017-11-07T21:25:05.847Z,91.82
2017-11-07T21:27:33.432Z,91.99
2017-11-07T21:30:01.063Z,92.35
2017-11-07T21:32:28.642Z,91.48
2017-11-07T21:34:57.155Z,91.85
2017-11-07T21:37:24.727Z,91.61
2017-11-07T21:39:52.298Z,91.89
2017-11-07T21:42:19.871Z,92.38
2017-11-07T21:44:47.442Z,91.54
2017-11-07T21:47:15.045Z,91.78
2017-11-07T21:49:42.627Z,92.79
2017-11-07T21:52:10.238Z,92.40
2017-11-07T21:54:37.812Z,92.48
2017-11-07T21:57:05.445Z,92.84
2017-11-07T21:59:33.009Z,92.92
2017-11-07T22:02:00.579Z,92.57
2017-11-07T22:04:28.166Z,93.10
2017-11-07T22:06:55.733Z,92.99
2017-11-07T22:09:23.355Z,93.71
2017-11-07T22:11:50.922Z,93.42
2017-11-07T22:14:18.534Z,93.24
2017-11-07T22:16:54.927Z,93.38
2017-11-07T22:19:22.542Z,93.13
2017-11-07T22:21:50.110Z,93.08
2017-11-07T22:24:17.686Z,93.85
2017-11-07T22:26:45.258Z,93.79
2017-11-07T22:29:12.831Z,94.00
2017-11-07T22:31:41.230Z,94.29
2017-11-07T22:34:09.491Z,94.57
2017-11-07T22:36:37.062Z,95.10
2017-11-07T22:39:04.631Z,94.96
2017-11-07T22:41:32.244Z,95.24
2017-11-07T22:43:59.823Z,96.07
2017-11-07T22:46:27.393Z,96.45
2017-11-07T22:48:54.958Z,95.84
2017-11-07T22:51:22.531Z,95.80
2017-11-07T22:53:50.094Z,95.67
2017-11-07T22:56:17.665Z,95.80
2017-11-07T22:58:45.230Z,96.26
2017-11-07T23:01:12.789Z,95.35
2017-11-07T23:03:40.356Z,95.32
2017-11-07T23:06:07.960Z,95.21
2017-11-07T23:08:35.819Z,95.31
2017-11-07T23:11:03.389Z,95.88
2017-11-07T23:13:30.954Z,95.88
2017-11-07T23:15:58.520Z,95.84
2017-11-07T23:18:26.091Z,96.43
2017-11-07T23:20:53.660Z,96.30
2017-11-07T23:23:21.271Z,97.20
2017-11-07T23:25:48.852Z,97.05
2017-11-07T23:28:16.434Z,96.91
2017-11-07T23:30:44.011Z,97.01
2017-11-07T23:33:11.595Z,96.81
2017-11-07T23:35:39.162Z,96.26
2017-11-07T23:38:06.734Z,96.51
2017-11-07T23:40:34.316Z,97.12
2017-11-07T23:43:01.891Z,97.50
2017-11-07T23:45:29.458Z,97.56
2017-11-07T23:47:57.040Z,97.13
2017-11-07T23:50:25.564Z,97.39
2017-11-07T23:52:53.195Z,97.34
2017-11-07T23:55:20.770Z,97.71
2017-11-07T23:57:48.343Z,98.25
